sensor_id;sensor_type;location;lat;lon;timestamp;P1;durP1;ratioP1;P2;durP2;ratioP2
6105;SDS011;3083;51.508;7.966;2022-10-15T00:01:43;28.70;;;17.80;;
6105;SDS011;3083;51.508;7.966;2022-10-15T00:04:10;34.63;;;18.00;;
6105;SDS011;3083;51.508;7.966;2022-10-15T00:06:37;32.87;;;17.70;;
6105;SDS011;3083;51.508;7.966;2022-10-15T00:09:07;32.00;;;17.83;;
6105;SDS011;3083;51.508;7.966;2022-10-15T00:11:34;30.73;;;17.13;;
6105;SDS011;3083;51.508;7.966;2022-10-15T00:14:01;33.73;;;17.33;;
6105;SDS011;3083;51.508;7.966;2022-10-15T00:16:28;34.73;;;17.60;;
6105;SDS011;3083;51.508;7.966;2022-10-15T00:18:57;33.90;;;17.40;;
6105;SDS011;3083;51.508;7.966;2022-10-15T00:21:25;31.60;;;17.07;;
6105;SDS011;3083;51.508;7.966;2022-10-15T00:23:52;29.50;;;17.13;;
6105;SDS011;3083;51.508;7.966;2022-10-15T00:26:20;31.03;;;16.33;;
6105;SDS011;3083;51.508;7.966;2022-10-15T00:28:49;29.70;;;15.13;;
6105;SDS011;3083;51.508;7.966;2022-10-15T00:31:17;27.67;;;15.33;;
6105;SDS011;3083;51.508;7.966;2022-10-15T00:33:47;32.37;;;16.57;;
6105;SDS011;3083;51.508;7.966;2022-10-15T00:36:17;30.97;;;16.60;;
6105;SDS011;3083;51.508;7.966;2022-10-15T00:38:45;27.87;;;14.80;;
6105;SDS011;3083;51.508;7.966;2022-10-15T00:41:14;26.37;;;15.70;;
6105;SDS011;3083;51.508;7.966;2022-10-15T00:43:43;32.90;;;16.10;;
6105;SDS011;3083;51.508;7.966;2022-10-15T00:46:15;29.70;;;16.40;;
6105;SDS011;3083;51.508;7.966;2022-10-15T00:48:48;27.23;;;14.47;;
6105;SDS011;3083;51.508;7.966;2022-10-15T00:51:25;30.47;;;16.27;;
6105;SDS011;3083;51.508;7.966;2022-10-15T00:53:58;35.10;;;19.47;;
6105;SDS011;3083;51.508;7.966;2022-10-15T00:56:26;34.70;;;18.27;;
6105;SDS011;3083;51.508;7.966;2022-10-15T00:58:56;31.07;;;17.43;;
6105;SDS011;3083;51.508;7.966;2022-10-15T01:01:24;32.93;;;18.50;;
6105;SDS011;3083;51.508;7.966;2022-10-15T01:03:51;32.87;;;18.63;;
6105;SDS011;3083;51.508;7.966;2022-10-15T01:06:20;32.87;;;17.90;;
6105;SDS011;3083;51.508;7.966;2022-10-15T01:08:48;34.27;;;18.30;;
6105;SDS011;3083;51.508;7.966;2022-10-15T01:11:20;36.17;;;18.47;;
6105;SDS011;3083;51.508;7.966;2022-10-15T01:13:57;34.67;;;18.27;;
6105;SDS011;3083;51.508;7.966;2022-10-15T01:16:34;32.40;;;17.20;;
6105;SDS011;3083;51.508;7.966;2022-10-15T01:19:10;40.07;;;20.90;;
6105;SDS011;3083;51.508;7.966;2022-10-15T01:21:55;32.73;;;18.30;;
6105;SDS011;3083;51.508;7.966;2022-10-15T01:24:43;29.63;;;16.57;;
6105;SDS011;3083;51.508;7.966;2022-10-15T01:27:24;37.13;;;17.80;;
6105;SDS011;3083;51.508;7.966;2022-10-15T01:32:43;38.07;;;17.90;;
6105;SDS011;3083;51.508;7.966;2022-10-15T01:35:16;37.67;;;17.87;;
6105;SDS011;3083;51.508;7.966;2022-10-15T01:37:53;33.60;;;17.03;;
6105;SDS011;3083;51.508;7.966;2022-10-15T01:40:29;35.27;;;17.30;;
6105;SDS011;3083;51.508;7.966;2022-10-15T01:42:59;35.27;;;17.90;;
6105;SDS011;3083;51.508;7.966;2022-10-15T01:45:32;31.90;;;17.40;;
6105;SDS011;3083;51.508;7.966;2022-10-15T01:48:04;34.80;;;16.80;;
6105;SDS011;3083;51.508;7.966;2022-10-15T01:50:34;38.83;;;17.60;;
6105;SDS011;3083;51.508;7.966;2022-10-15T01:53:05;36.57;;;17.33;;
6105;SDS011;3083;51.508;7.966;2022-10-15T01:55:35;33.90;;;16.80;;
6105;SDS011;3083;51.508;7.966;2022-10-15T01:58:06;37.03;;;17.17;;
6105;SDS011;3083;51.508;7.966;2022-10-15T02:00:35;33.77;;;17.20;;
6105;SDS011;3083;51.508;7.966;2022-10-15T02:03:03;32.77;;;16.13;;
6105;SDS011;3083;51.508;7.966;2022-10-15T02:05:31;34.57;;;17.10;;
6105;SDS011;3083;51.508;7.966;2022-10-15T02:08:04;31.03;;;16.37;;
6105;SDS011;3083;51.508;7.966;2022-10-15T02:10:38;34.97;;;17.33;;
6105;SDS011;3083;51.508;7.966;2022-10-15T02:13:15;36.13;;;16.70;;
6105;SDS011;3083;51.508;7.966;2022-10-15T02:15:53;34.93;;;16.60;;
6105;SDS011;3083;51.508;7.966;2022-10-15T02:18:33;31.03;;;15.97;;
6105;SDS011;3083;51.508;7.966;2022-10-15T02:21:05;35.47;;;16.40;;
6105;SDS011;3083;51.508;7.966;2022-10-15T02:23:38;34.03;;;15.97;;
6105;SDS011;3083;51.508;7.966;2022-10-15T02:26:12;33.87;;;16.77;;
6105;SDS011;3083;51.508;7.966;2022-10-15T02:28:41;33.00;;;16.70;;
6105;SDS011;3083;51.508;7.966;2022-10-15T02:31:12;35.30;;;17.07;;
6105;SDS011;3083;51.508;7.966;2022-10-15T02:33:40;31.10;;;16.17;;
6105;SDS011;3083;51.508;7.966;2022-10-15T02:36:08;33.20;;;16.20;;
6105;SDS011;3083;51.508;7.966;2022-10-15T02:38:35;27.77;;;14.70;;
6105;SDS011;3083;51.508;7.966;2022-10-15T02:41:05;30.60;;;16.07;;
6105;SDS011;3083;51.508;7.966;2022-10-15T02:43:34;30.67;;;16.20;;
6105;SDS011;3083;51.508;7.966;2022-10-15T02:46:01;28.93;;;14.30;;
6105;SDS011;3083;51.508;7.966;2022-10-15T02:48:31;31.77;;;14.77;;
6105;SDS011;3083;51.508;7.966;2022-10-15T02:50:58;28.80;;;15.17;;
6105;SDS011;3083;51.508;7.966;2022-10-15T02:53:25;31.00;;;15.70;;
6105;SDS011;3083;51.508;7.966;2022-10-15T02:55:52;27.30;;;14.70;;
6105;SDS011;3083;51.508;7.966;2022-10-15T02:58:19;29.40;;;15.37;;
6105;SDS011;3083;51.508;7.966;2022-10-15T03:00:46;29.23;;;15.30;;
6105;SDS011;3083;51.508;7.966;2022-10-15T03:03:14;26.63;;;15.20;;
6105;SDS011;3083;51.508;7.966;2022-10-15T03:05:42;26.00;;;14.57;;
6105;SDS011;3083;51.508;7.966;2022-10-15T03:08:10;28.53;;;14.93;;
6105;SDS011;3083;51.508;7.966;2022-10-15T03:10:37;29.40;;;14.63;;
6105;SDS011;3083;51.508;7.966;2022-10-15T03:13:04;29.53;;;15.47;;
6105;SDS011;3083;51.508;7.966;2022-10-15T03:15:31;34.13;;;17.00;;
6105;SDS011;3083;51.508;7.966;2022-10-15T03:17:59;38.23;;;18.10;;
6105;SDS011;3083;51.508;7.966;2022-10-15T03:20:26;39.40;;;17.80;;
6105;SDS011;3083;51.508;7.966;2022-10-15T03:22:54;36.13;;;16.93;;
6105;SDS011;3083;51.508;7.966;2022-10-15T03:25:21;38.53;;;17.20;;
6105;SDS011;3083;51.508;7.966;2022-10-15T03:27:48;37.63;;;18.97;;
6105;SDS011;3083;51.508;7.966;2022-10-15T03:30:17;36.70;;;17.57;;
6105;SDS011;3083;51.508;7.966;2022-10-15T03:32:44;38.40;;;17.50;;
6105;SDS011;3083;51.508;7.966;2022-10-15T03:35:11;36.80;;;17.83;;
6105;SDS011;3083;51.508;7.966;2022-10-15T03:37:38;45.67;;;18.80;;
6105;SDS011;3083;51.508;7.966;2022-10-15T03:40:08;41.10;;;18.40;;
6105;SDS011;3083;51.508;7.966;2022-10-15T03:42:35;35.03;;;16.30;;
6105;SDS011;3083;51.508;7.966;2022-10-15T03:45:02;39.40;;;18.23;;
6105;SDS011;3083;51.508;7.966;2022-10-15T03:47:29;38.20;;;18.40;;
6105;SDS011;3083;51.508;7.966;2022-10-15T03:49:56;36.27;;;17.00;;
6105;SDS011;3083;51.508;7.966;2022-10-15T03:52:23;35.00;;;16.73;;
6105;SDS011;3083;51.508;7.966;2022-10-15T03:54:50;39.07;;;18.40;;
6105;SDS011;3083;51.508;7.966;2022-10-15T03:57:18;36.03;;;17.70;;
6105;SDS011;3083;51.508;7.966;2022-10-15T03:59:45;34.07;;;17.30;;
6105;SDS011;3083;51.508;7.966;2022-10-15T04:02:12;41.53;;;18.70;;
6105;SDS011;3083;51.508;7.966;2022-10-15T04:04:39;48.37;;;19.40;;
6105;SDS011;3083;51.508;7.966;2022-10-15T04:07:06;47.13;;;19.17;;
6105;SDS011;3083;51.508;7.966;2022-10-15T04:09:33;41.93;;;18.30;;
6105;SDS011;3083;51.508;7.966;2022-10-15T04:12:00;50.33;;;20.10;;
6105;SDS011;3083;51.508;7.966;2022-10-15T04:14:28;42.70;;;19.50;;
6105;SDS011;3083;51.508;7.966;2022-10-15T04:16:55;41.37;;;18.83;;
6105;SDS011;3083;51.508;7.966;2022-10-15T04:19:23;44.23;;;19.00;;
6105;SDS011;3083;51.508;7.966;2022-10-15T04:21:50;44.47;;;19.17;;
6105;SDS011;3083;51.508;7.966;2022-10-15T04:24:17;43.20;;;19.20;;
6105;SDS011;3083;51.508;7.966;2022-10-15T04:26:43;46.53;;;20.57;;
6105;SDS011;3083;51.508;7.966;2022-10-15T04:29:11;46.00;;;19.93;;
6105;SDS011;3083;51.508;7.966;2022-10-15T04:31:39;41.20;;;19.47;;
6105;SDS011;3083;51.508;7.966;2022-10-15T04:34:07;46.50;;;19.87;;
6105;SDS011;3083;51.508;7.966;2022-10-15T04:36:34;40.27;;;19.20;;
6105;SDS011;3083;51.508;7.966;2022-10-15T04:39:01;42.67;;;19.43;;
6105;SDS011;3083;51.508;7.966;2022-10-15T04:41:29;44.10;;;19.40;;
6105;SDS011;3083;51.508;7.966;2022-10-15T04:43:56;44.07;;;19.70;;
6105;SDS011;3083;51.508;7.966;2022-10-15T04:46:24;41.33;;;19.10;;
6105;SDS011;3083;51.508;7.966;2022-10-15T04:48:52;39.80;;;17.87;;
6105;SDS011;3083;51.508;7.966;2022-10-15T04:51:22;42.43;;;17.83;;
6105;SDS011;3083;51.508;7.966;2022-10-15T04:53:49;42.80;;;19.57;;
6105;SDS011;3083;51.508;7.966;2022-10-15T04:56:18;41.70;;;18.93;;
6105;SDS011;3083;51.508;7.966;2022-10-15T04:58:46;42.30;;;19.27;;
6105;SDS011;3083;51.508;7.966;2022-10-15T05:01:14;43.97;;;18.80;;
6105;SDS011;3083;51.508;7.966;2022-10-15T05:03:44;47.60;;;18.47;;
6105;SDS011;3083;51.508;7.966;2022-10-15T05:06:14;40.53;;;19.07;;
6105;SDS011;3083;51.508;7.966;2022-10-15T05:08:43;43.73;;;18.30;;
6105;SDS011;3083;51.508;7.966;2022-10-15T05:11:12;47.60;;;19.17;;
6105;SDS011;3083;51.508;7.966;2022-10-15T05:13:40;48.37;;;18.87;;
6105;SDS011;3083;51.508;7.966;2022-10-15T05:16:09;50.00;;;20.70;;
6105;SDS011;3083;51.508;7.966;2022-10-15T05:18:37;46.77;;;21.27;;
6105;SDS011;3083;51.508;7.966;2022-10-15T05:21:05;58.97;;;24.33;;
6105;SDS011;3083;51.508;7.966;2022-10-15T05:23:34;58.17;;;24.90;;
6105;SDS011;3083;51.508;7.966;2022-10-15T05:26:03;61.43;;;23.20;;
6105;SDS011;3083;51.508;7.966;2022-10-15T05:28:33;68.77;;;25.30;;
6105;SDS011;3083;51.508;7.966;2022-10-15T05:31:04;67.57;;;23.37;;
6105;SDS011;3083;51.508;7.966;2022-10-15T05:33:32;64.90;;;22.80;;
6105;SDS011;3083;51.508;7.966;2022-10-15T05:36:06;61.87;;;24.27;;
6105;SDS011;3083;51.508;7.966;2022-10-15T05:38:36;60.70;;;24.97;;
6105;SDS011;3083;51.508;7.966;2022-10-15T05:41:03;60.20;;;24.20;;
6105;SDS011;3083;51.508;7.966;2022-10-15T05:43:30;62.30;;;22.50;;
6105;SDS011;3083;51.508;7.966;2022-10-15T05:45:57;63.00;;;23.40;;
6105;SDS011;3083;51.508;7.966;2022-10-15T05:48:24;56.20;;;21.83;;
6105;SDS011;3083;51.508;7.966;2022-10-15T05:50:51;61.00;;;23.93;;
6105;SDS011;3083;51.508;7.966;2022-10-15T05:53:18;62.00;;;23.50;;
6105;SDS011;3083;51.508;7.966;2022-10-15T05:55:46;57.13;;;22.23;;
6105;SDS011;3083;51.508;7.966;2022-10-15T05:58:14;61.20;;;23.47;;
6105;SDS011;3083;51.508;7.966;2022-10-15T06:00:41;62.90;;;22.30;;
6105;SDS011;3083;51.508;7.966;2022-10-15T06:03:10;56.37;;;21.47;;
6105;SDS011;3083;51.508;7.966;2022-10-15T06:05:38;60.93;;;23.10;;
6105;SDS011;3083;51.508;7.966;2022-10-15T06:08:05;60.07;;;22.83;;
6105;SDS011;3083;51.508;7.966;2022-10-15T06:10:34;67.03;;;23.30;;
6105;SDS011;3083;51.508;7.966;2022-10-15T06:13:03;68.97;;;23.57;;
6105;SDS011;3083;51.508;7.966;2022-10-15T06:15:31;81.27;;;27.03;;
6105;SDS011;3083;51.508;7.966;2022-10-15T06:17:58;71.73;;;24.67;;
6105;SDS011;3083;51.508;7.966;2022-10-15T06:20:26;64.60;;;26.23;;
6105;SDS011;3083;51.508;7.966;2022-10-15T06:22:55;66.50;;;24.83;;
6105;SDS011;3083;51.508;7.966;2022-10-15T06:25:23;66.13;;;23.23;;
6105;SDS011;3083;51.508;7.966;2022-10-15T06:27:50;64.53;;;22.50;;
6105;SDS011;3083;51.508;7.966;2022-10-15T06:30:19;59.90;;;22.37;;
6105;SDS011;3083;51.508;7.966;2022-10-15T06:32:46;67.17;;;24.07;;
6105;SDS011;3083;51.508;7.966;2022-10-15T06:35:14;71.77;;;23.70;;
6105;SDS011;3083;51.508;7.966;2022-10-15T06:37:41;68.20;;;23.63;;
6105;SDS011;3083;51.508;7.966;2022-10-15T06:40:08;56.70;;;22.47;;
6105;SDS011;3083;51.508;7.966;2022-10-15T06:42:36;55.67;;;22.10;;
6105;SDS011;3083;51.508;7.966;2022-10-15T06:45:04;66.37;;;24.30;;
6105;SDS011;3083;51.508;7.966;2022-10-15T06:47:33;87.33;;;27.00;;
6105;SDS011;3083;51.508;7.966;2022-10-15T06:50:00;81.20;;;26.40;;
6105;SDS011;3083;51.508;7.966;2022-10-15T06:52:28;61.90;;;22.57;;
6105;SDS011;3083;51.508;7.966;2022-10-15T06:54:55;61.80;;;22.37;;
6105;SDS011;3083;51.508;7.966;2022-10-15T06:57:22;64.13;;;23.90;;
6105;SDS011;3083;51.508;7.966;2022-10-15T06:59:50;54.07;;;21.43;;
6105;SDS011;3083;51.508;7.966;2022-10-15T07:02:17;66.60;;;23.10;;
6105;SDS011;3083;51.508;7.966;2022-10-15T07:04:46;61.83;;;24.93;;
6105;SDS011;3083;51.508;7.966;2022-10-15T07:07:13;74.00;;;25.67;;
6105;SDS011;3083;51.508;7.966;2022-10-15T07:09:40;73.53;;;29.67;;
6105;SDS011;3083;51.508;7.966;2022-10-15T07:12:07;80.23;;;32.63;;
6105;SDS011;3083;51.508;7.966;2022-10-15T07:14:34;75.50;;;32.50;;
6105;SDS011;3083;51.508;7.966;2022-10-15T07:17:01;73.67;;;29.60;;
6105;SDS011;3083;51.508;7.966;2022-10-15T07:19:28;62.77;;;26.40;;
6105;SDS011;3083;51.508;7.966;2022-10-15T07:21:56;64.90;;;25.20;;
6105;SDS011;3083;51.508;7.966;2022-10-15T07:24:23;68.90;;;25.30;;
6105;SDS011;3083;51.508;7.966;2022-10-15T07:26:50;76.97;;;25.63;;
6105;SDS011;3083;51.508;7.966;2022-10-15T07:29:17;70.60;;;25.90;;
6105;SDS011;3083;51.508;7.966;2022-10-15T07:31:44;79.50;;;28.00;;
6105;SDS011;3083;51.508;7.966;2022-10-15T07:34:11;90.60;;;31.57;;
6105;SDS011;3083;51.508;7.966;2022-10-15T07:36:38;92.80;;;30.07;;
6105;SDS011;3083;51.508;7.966;2022-10-15T07:39:07;88.17;;;27.90;;
6105;SDS011;3083;51.508;7.966;2022-10-15T07:41:34;89.43;;;28.57;;
6105;SDS011;3083;51.508;7.966;2022-10-15T07:44:01;113.47;;;30.77;;
6105;SDS011;3083;51.508;7.966;2022-10-15T07:46:28;119.43;;;35.23;;
6105;SDS011;3083;51.508;7.966;2022-10-15T07:48:55;133.50;;;36.93;;
6105;SDS011;3083;51.508;7.966;2022-10-15T07:51:21;125.30;;;33.53;;
6105;SDS011;3083;51.508;7.966;2022-10-15T07:53:48;96.40;;;28.23;;
6105;SDS011;3083;51.508;7.966;2022-10-15T07:56:17;85.40;;;28.13;;
6105;SDS011;3083;51.508;7.966;2022-10-15T07:58:44;85.27;;;29.37;;
6105;SDS011;3083;51.508;7.966;2022-10-15T08:01:16;52.37;;;21.80;;
6105;SDS011;3083;51.508;7.966;2022-10-15T08:03:43;37.73;;;19.83;;
6105;SDS011;3083;51.508;7.966;2022-10-15T08:06:10;37.13;;;18.17;;
6105;SDS011;3083;51.508;7.966;2022-10-15T08:08:37;31.70;;;17.40;;
6105;SDS011;3083;51.508;7.966;2022-10-15T08:11:04;29.30;;;16.67;;
6105;SDS011;3083;51.508;7.966;2022-10-15T08:13:33;29.13;;;16.60;;
6105;SDS011;3083;51.508;7.966;2022-10-15T08:16:00;32.43;;;18.77;;
6105;SDS011;3083;51.508;7.966;2022-10-15T08:18:27;26.90;;;16.30;;
6105;SDS011;3083;51.508;7.966;2022-10-15T08:20:57;27.10;;;16.10;;
6105;SDS011;3083;51.508;7.966;2022-10-15T08:23:24;27.33;;;16.13;;
6105;SDS011;3083;51.508;7.966;2022-10-15T08:25:51;26.60;;;16.20;;
6105;SDS011;3083;51.508;7.966;2022-10-15T08:28:18;25.70;;;15.30;;
6105;SDS011;3083;51.508;7.966;2022-10-15T08:30:47;23.50;;;14.00;;
6105;SDS011;3083;51.508;7.966;2022-10-15T08:33:14;23.93;;;15.00;;
6105;SDS011;3083;51.508;7.966;2022-10-15T08:35:41;25.13;;;15.50;;
6105;SDS011;3083;51.508;7.966;2022-10-15T08:38:09;24.13;;;13.97;;
6105;SDS011;3083;51.508;7.966;2022-10-15T08:40:36;21.17;;;13.93;;
6105;SDS011;3083;51.508;7.966;2022-10-15T08:43:04;23.33;;;13.23;;
6105;SDS011;3083;51.508;7.966;2022-10-15T08:45:33;22.43;;;14.00;;
6105;SDS011;3083;51.508;7.966;2022-10-15T08:48:09;19.80;;;12.77;;
6105;SDS011;3083;51.508;7.966;2022-10-15T08:50:39;19.50;;;11.37;;
6105;SDS011;3083;51.508;7.966;2022-10-15T08:53:11;22.70;;;12.60;;
6105;SDS011;3083;51.508;7.966;2022-10-15T08:55:41;17.50;;;11.40;;
6105;SDS011;3083;51.508;7.966;2022-10-15T08:58:11;23.73;;;11.93;;
6105;SDS011;3083;51.508;7.966;2022-10-15T09:00:42;16.70;;;11.80;;
6105;SDS011;3083;51.508;7.966;2022-10-15T09:03:20;15.83;;;11.17;;
6105;SDS011;3083;51.508;7.966;2022-10-15T09:05:56;18.03;;;10.77;;
6105;SDS011;3083;51.508;7.966;2022-10-15T09:08:32;14.10;;;9.30;;
6105;SDS011;3083;51.508;7.966;2022-10-15T09:11:06;14.73;;;9.60;;
6105;SDS011;3083;51.508;7.966;2022-10-15T09:13:42;15.97;;;10.40;;
6105;SDS011;3083;51.508;7.966;2022-10-15T09:16:11;17.57;;;11.60;;
6105;SDS011;3083;51.508;7.966;2022-10-15T09:18:43;12.93;;;8.83;;
6105;SDS011;3083;51.508;7.966;2022-10-15T09:21:12;16.57;;;10.67;;
6105;SDS011;3083;51.508;7.966;2022-10-15T09:23:40;14.73;;;10.20;;
6105;SDS011;3083;51.508;7.966;2022-10-15T09:26:15;14.97;;;9.70;;
6105;SDS011;3083;51.508;7.966;2022-10-15T09:28:50;15.50;;;10.27;;
6105;SDS011;3083;51.508;7.966;2022-10-15T09:31:22;13.33;;;8.90;;
6105;SDS011;3083;51.508;7.966;2022-10-15T09:33:56;14.63;;;10.00;;
6105;SDS011;3083;51.508;7.966;2022-10-15T09:36:35;13.63;;;10.07;;
6105;SDS011;3083;51.508;7.966;2022-10-15T09:39:10;15.53;;;10.43;;
6105;SDS011;3083;51.508;7.966;2022-10-15T09:41:56;14.70;;;9.50;;
6105;SDS011;3083;51.508;7.966;2022-10-15T09:44:32;13.23;;;9.20;;
6105;SDS011;3083;51.508;7.966;2022-10-15T09:47:11;13.80;;;8.70;;
6105;SDS011;3083;51.508;7.966;2022-10-15T09:49:43;12.70;;;8.50;;
6105;SDS011;3083;51.508;7.966;2022-10-15T09:52:10;12.00;;;8.67;;
6105;SDS011;3083;51.508;7.966;2022-10-15T09:54:44;13.03;;;8.03;;
6105;SDS011;3083;51.508;7.966;2022-10-15T09:57:19;9.77;;;6.00;;
6105;SDS011;3083;51.508;7.966;2022-10-15T09:59:52;9.90;;;6.60;;
6105;SDS011;3083;51.508;7.966;2022-10-15T10:02:21;9.70;;;6.20;;
6105;SDS011;3083;51.508;7.966;2022-10-15T10:04:51;7.50;;;5.30;;
6105;SDS011;3083;51.508;7.966;2022-10-15T10:10:20;7.23;;;5.23;;
6105;SDS011;3083;51.508;7.966;2022-10-15T10:12:49;6.30;;;4.47;;
6105;SDS011;3083;51.508;7.966;2022-10-15T10:15:25;8.60;;;4.43;;
6105;SDS011;3083;51.508;7.966;2022-10-15T10:17:56;142.80;;;17.00;;
6105;SDS011;3083;51.508;7.966;2022-10-15T10:20:25;6.33;;;4.10;;
6105;SDS011;3083;51.508;7.966;2022-10-15T10:22:55;5.53;;;3.77;;
6105;SDS011;3083;51.508;7.966;2022-10-15T10:25:29;5.60;;;3.73;;
6105;SDS011;3083;51.508;7.966;2022-10-15T10:28:02;4.93;;;3.80;;
6105;SDS011;3083;51.508;7.966;2022-10-15T10:30:33;4.33;;;2.90;;
6105;SDS011;3083;51.508;7.966;2022-10-15T10:33:01;4.53;;;3.20;;
6105;SDS011;3083;51.508;7.966;2022-10-15T10:35:34;4.40;;;2.90;;
6105;SDS011;3083;51.508;7.966;2022-10-15T10:38:17;4.50;;;2.77;;
6105;SDS011;3083;51.508;7.966;2022-10-15T10:40:51;5.20;;;2.57;;
6105;SDS011;3083;51.508;7.966;2022-10-15T10:43:23;4.43;;;2.83;;
6105;SDS011;3083;51.508;7.966;2022-10-15T10:45:52;4.40;;;2.83;;
6105;SDS011;3083;51.508;7.966;2022-10-15T10:48:22;4.03;;;2.70;;
6105;SDS011;3083;51.508;7.966;2022-10-15T10:51:05;6.50;;;2.10;;
6105;SDS011;3083;51.508;7.966;2022-10-15T10:53:38;3.37;;;2.50;;
6105;SDS011;3083;51.508;7.966;2022-10-15T10:56:19;3.33;;;2.30;;
6105;SDS011;3083;51.508;7.966;2022-10-15T10:58:54;2.70;;;1.70;;
6105;SDS011;3083;51.508;7.966;2022-10-15T11:01:25;3.20;;;2.10;;
6105;SDS011;3083;51.508;7.966;2022-10-15T11:03:53;2.93;;;1.77;;
6105;SDS011;3083;51.508;7.966;2022-10-15T11:06:34;2.60;;;1.70;;
6105;SDS011;3083;51.508;7.966;2022-10-15T11:09:18;3.10;;;1.80;;
6105;SDS011;3083;51.508;7.966;2022-10-15T11:12:13;2.90;;;1.73;;
6105;SDS011;3083;51.508;7.966;2022-10-15T11:15:13;2.80;;;1.60;;
6105;SDS011;3083;51.508;7.966;2022-10-15T11:17:53;2.90;;;1.60;;
6105;SDS011;3083;51.508;7.966;2022-10-15T11:20:36;3.73;;;1.50;;
6105;SDS011;3083;51.508;7.966;2022-10-15T11:23:19;2.10;;;1.30;;
6105;SDS011;3083;51.508;7.966;2022-10-15T11:25:56;2.63;;;1.70;;
6105;SDS011;3083;51.508;7.966;2022-10-15T11:28:35;2.20;;;1.30;;
6105;SDS011;3083;51.508;7.966;2022-10-15T11:31:14;3.20;;;1.30;;
6105;SDS011;3083;51.508;7.966;2022-10-15T11:33:51;2.20;;;1.20;;
6105;SDS011;3083;51.508;7.966;2022-10-15T11:36:32;2.03;;;1.23;;
6105;SDS011;3083;51.508;7.966;2022-10-15T11:39:15;2.80;;;1.60;;
6105;SDS011;3083;51.508;7.966;2022-10-15T11:41:55;3.07;;;1.50;;
6105;SDS011;3083;51.508;7.966;2022-10-15T11:44:33;2.60;;;1.63;;
6105;SDS011;3083;51.508;7.966;2022-10-15T11:47:10;2.10;;;1.30;;
6105;SDS011;3083;51.508;7.966;2022-10-15T11:49:49;2.40;;;1.40;;
6105;SDS011;3083;51.508;7.966;2022-10-15T11:52:28;4.77;;;1.40;;
6105;SDS011;3083;51.508;7.966;2022-10-15T11:55:09;2.97;;;1.40;;
6105;SDS011;3083;51.508;7.966;2022-10-15T11:57:40;2.50;;;1.30;;
6105;SDS011;3083;51.508;7.966;2022-10-15T12:00:14;2.70;;;1.47;;
6105;SDS011;3083;51.508;7.966;2022-10-15T12:02:51;2.40;;;1.40;;
6105;SDS011;3083;51.508;7.966;2022-10-15T12:05:20;2.37;;;1.40;;
6105;SDS011;3083;51.508;7.966;2022-10-15T12:07:56;5.90;;;1.80;;
6105;SDS011;3083;51.508;7.966;2022-10-15T12:10:28;3.10;;;2.30;;
6105;SDS011;3083;51.508;7.966;2022-10-15T12:13:05;2.00;;;1.37;;
6105;SDS011;3083;51.508;7.966;2022-10-15T12:15:38;2.37;;;1.40;;
6105;SDS011;3083;51.508;7.966;2022-10-15T12:18:11;2.40;;;1.40;;
6105;SDS011;3083;51.508;7.966;2022-10-15T12:20:44;2.10;;;1.13;;
6105;SDS011;3083;51.508;7.966;2022-10-15T12:23:22;2.33;;;1.50;;
6105;SDS011;3083;51.508;7.966;2022-10-15T12:25:52;1.93;;;1.20;;
6105;SDS011;3083;51.508;7.966;2022-10-15T12:28:20;2.43;;;1.40;;
6105;SDS011;3083;51.508;7.966;2022-10-15T12:30:52;3.20;;;1.23;;
6105;SDS011;3083;51.508;7.966;2022-10-15T12:33:34;2.00;;;1.20;;
6105;SDS011;3083;51.508;7.966;2022-10-15T12:36:04;3.97;;;1.67;;
6105;SDS011;3083;51.508;7.966;2022-10-15T12:38:35;2.27;;;1.20;;
6105;SDS011;3083;51.508;7.966;2022-10-15T12:41:06;2.47;;;1.50;;
6105;SDS011;3083;51.508;7.966;2022-10-15T12:43:36;2.30;;;1.20;;
6105;SDS011;3083;51.508;7.966;2022-10-15T12:46:06;2.30;;;1.23;;
6105;SDS011;3083;51.508;7.966;2022-10-15T12:48:36;2.23;;;1.47;;
6105;SDS011;3083;51.508;7.966;2022-10-15T12:53:59;3.27;;;1.50;;
6105;SDS011;3083;51.508;7.966;2022-10-15T12:56:35;2.30;;;1.30;;
6105;SDS011;3083;51.508;7.966;2022-10-15T12:59:11;2.70;;;1.40;;
6105;SDS011;3083;51.508;7.966;2022-10-15T13:01:56;4.77;;;1.50;;
6105;SDS011;3083;51.508;7.966;2022-10-15T13:04:23;2.20;;;1.40;;
6105;SDS011;3083;51.508;7.966;2022-10-15T13:07:03;4.33;;;1.30;;
6105;SDS011;3083;51.508;7.966;2022-10-15T13:09:30;3.73;;;1.50;;
6105;SDS011;3083;51.508;7.966;2022-10-15T13:11:59;2.73;;;1.40;;
6105;SDS011;3083;51.508;7.966;2022-10-15T13:14:28;3.87;;;1.50;;
6105;SDS011;3083;51.508;7.966;2022-10-15T13:16:57;4.23;;;1.80;;
6105;SDS011;3083;51.508;7.966;2022-10-15T13:19:27;3.33;;;1.30;;
6105;SDS011;3083;51.508;7.966;2022-10-15T13:21:55;2.20;;;1.40;;
6105;SDS011;3083;51.508;7.966;2022-10-15T13:24:25;2.57;;;1.60;;
6105;SDS011;3083;51.508;7.966;2022-10-15T13:26:53;2.70;;;1.97;;
6105;SDS011;3083;51.508;7.966;2022-10-15T13:29:24;2.50;;;1.67;;
6105;SDS011;3083;51.508;7.966;2022-10-15T13:31:53;2.60;;;1.30;;
6105;SDS011;3083;51.508;7.966;2022-10-15T13:34:23;2.30;;;1.40;;
6105;SDS011;3083;51.508;7.966;2022-10-15T13:36:52;3.17;;;1.50;;
6105;SDS011;3083;51.508;7.966;2022-10-15T13:39:23;2.10;;;1.30;;
6105;SDS011;3083;51.508;7.966;2022-10-15T13:42:06;2.70;;;1.47;;
6105;SDS011;3083;51.508;7.966;2022-10-15T13:44:41;2.40;;;1.50;;
6105;SDS011;3083;51.508;7.966;2022-10-15T13:47:22;2.40;;;1.20;;
6105;SDS011;3083;51.508;7.966;2022-10-15T13:52:43;2.20;;;1.47;;
6105;SDS011;3083;51.508;7.966;2022-10-15T13:55:17;2.40;;;1.33;;
6105;SDS011;3083;51.508;7.966;2022-10-15T13:57:46;3.37;;;1.30;;
6105;SDS011;3083;51.508;7.966;2022-10-15T14:00:20;2.30;;;1.30;;
6105;SDS011;3083;51.508;7.966;2022-10-15T14:05:31;2.53;;;1.33;;
6105;SDS011;3083;51.508;7.966;2022-10-15T14:07:58;3.30;;;1.20;;
6105;SDS011;3083;51.508;7.966;2022-10-15T14:10:25;2.70;;;1.20;;
6105;SDS011;3083;51.508;7.966;2022-10-15T14:12:52;2.57;;;1.40;;
6105;SDS011;3083;51.508;7.966;2022-10-15T14:18:08;4.30;;;1.20;;
6105;SDS011;3083;51.508;7.966;2022-10-15T14:20:39;1.90;;;1.10;;
6105;SDS011;3083;51.508;7.966;2022-10-15T14:23:13;2.13;;;1.20;;
6105;SDS011;3083;51.508;7.966;2022-10-15T14:25:41;3.20;;;1.40;;
6105;SDS011;3083;51.508;7.966;2022-10-15T14:28:15;3.20;;;1.40;;
6105;SDS011;3083;51.508;7.966;2022-10-15T14:30:47;5.70;;;1.40;;
6105;SDS011;3083;51.508;7.966;2022-10-15T14:33:37;2.80;;;1.63;;
6105;SDS011;3083;51.508;7.966;2022-10-15T14:36:08;4.93;;;1.50;;
6105;SDS011;3083;51.508;7.966;2022-10-15T14:38:48;3.33;;;1.30;;
6105;SDS011;3083;51.508;7.966;2022-10-15T14:41:20;2.30;;;1.20;;
6105;SDS011;3083;51.508;7.966;2022-10-15T14:43:58;3.43;;;1.30;;
6105;SDS011;3083;51.508;7.966;2022-10-15T14:46:35;2.37;;;1.33;;
6105;SDS011;3083;51.508;7.966;2022-10-15T14:49:13;2.13;;;1.13;;
6105;SDS011;3083;51.508;7.966;2022-10-15T14:51:44;2.10;;;1.20;;
6105;SDS011;3083;51.508;7.966;2022-10-15T14:54:14;2.23;;;1.30;;
6105;SDS011;3083;51.508;7.966;2022-10-15T14:56:47;4.23;;;1.37;;
6105;SDS011;3083;51.508;7.966;2022-10-15T14:59:16;3.33;;;1.40;;
6105;SDS011;3083;51.508;7.966;2022-10-15T15:01:53;2.27;;;1.30;;
6105;SDS011;3083;51.508;7.966;2022-10-15T15:04:32;2.53;;;1.20;;
6105;SDS011;3083;51.508;7.966;2022-10-15T15:07:01;4.40;;;1.50;;
6105;SDS011;3083;51.508;7.966;2022-10-15T15:09:28;4.13;;;1.60;;
6105;SDS011;3083;51.508;7.966;2022-10-15T15:11:55;2.50;;;1.57;;
6105;SDS011;3083;51.508;7.966;2022-10-15T15:14:22;2.97;;;1.70;;
6105;SDS011;3083;51.508;7.966;2022-10-15T15:16:50;2.30;;;1.30;;
6105;SDS011;3083;51.508;7.966;2022-10-15T15:19:18;3.47;;;1.40;;
6105;SDS011;3083;51.508;7.966;2022-10-15T15:21:45;2.40;;;1.50;;
6105;SDS011;3083;51.508;7.966;2022-10-15T15:24:12;2.20;;;1.40;;
6105;SDS011;3083;51.508;7.966;2022-10-15T15:26:39;3.23;;;1.30;;
6105;SDS011;3083;51.508;7.966;2022-10-15T15:29:08;2.70;;;1.60;;
6105;SDS011;3083;51.508;7.966;2022-10-15T15:31:37;3.50;;;1.77;;
6105;SDS011;3083;51.508;7.966;2022-10-15T15:34:04;3.80;;;3.10;;
6105;SDS011;3083;51.508;7.966;2022-10-15T15:36:32;5.90;;;2.10;;